Time;durP1;ratioP1;P1;durP2;ratioP2;P2;SDS_P1;SDS_P2;PMS_P1;PMS_P2;Temp;Humidity;BMP_temperature;BMP_pressure;BME280_temperature;BME280_humidity;BME280_pressure;Samples;Min_cycle;Max_cycle;Signal;HPM_P1;HPM_P2
2023/02/25 00:01:31;;;;;;;51.27;31.37;;;;;;;;;;4390849;32;319183;-81
2023/02/25 00:03:58;;;;;;;50.67;29.10;;;;;;;;;;4400202;32;318789;-84
2023/02/25 00:06:27;;;;;;;61.27;28.90;;;;;;;;;;4390502;32;318704;-81
2023/02/25 00:08:55;;;;;;;44.07;24.93;;;;;;;;;;4401262;32;318916;-82
2023/02/25 00:11:24;;;;;;;44.13;22.93;;;;;;;;;;4391246;32;318957;-88
2023/02/25 00:13:52;;;;;;;42.83;22.60;;;;;;;;;;4400920;32;318632;-84
2023/02/25 00:16:20;;;;;;;42.17;22.30;;;;;;;;;;4391007;32;318946;-82
2023/02/25 00:18:48;;;;;;;50.63;24.07;;;;;;;;;;4402364;32;318878;-81
2023/02/25 00:21:16;;;;;;;42.10;22.87;;;;;;;;;;4391334;32;318968;-82
2023/02/25 00:23:47;;;;;;;47.93;24.20;;;;;;;;;;4408387;32;321620;-79
2023/02/25 00:26:16;;;;;;;50.60;23.83;;;;;;;;;;4398527;32;319099;-91
2023/02/25 00:28:44;;;;;;;45.83;24.97;;;;;;;;;;4412450;32;318742;-91
2023/02/25 00:31:14;;;;;;;47.23;23.70;;;;;;;;;;4397585;32;318872;-90
2023/02/25 00:33:42;;;;;;;34.13;20.17;;;;;;;;;;4401105;32;319108;-86
2023/02/25 00:36:12;;;;;;;47.87;20.70;;;;;;;;;;4389360;32;318924;-83
2023/02/25 00:38:39;;;;;;;46.30;20.93;;;;;;;;;;4399668;32;318612;-81
2023/02/25 00:41:11;;;;;;;41.50;20.33;;;;;;;;;;4401257;32;318935;-87
2023/02/25 00:43:41;;;;;;;39.90;20.27;;;;;;;;;;4389152;32;388098;-81
2023/02/25 00:46:09;;;;;;;41.03;20.90;;;;;;;;;;4396253;32;319114;-82
2023/02/25 00:48:37;;;;;;;39.27;20.93;;;;;;;;;;4401611;32;318991;-83
2023/02/25 00:51:09;;;;;;;39.70;22.37;;;;;;;;;;4392767;32;318776;-86
2023/02/25 00:53:37;;;;;;;42.57;24.20;;;;;;;;;;4389024;32;388822;-82
2023/02/25 00:56:07;;;;;;;39.87;24.23;;;;;;;;;;4401252;32;318890;-80
2023/02/25 00:58:37;;;;;;;55.00;25.47;;;;;;;;;;4389536;32;388851;-82
2023/02/25 01:01:15;;;;;;;55.03;26.43;;;;;;;;;;4400242;32;319126;-81
2023/02/25 01:03:43;;;;;;;52.87;26.53;;;;;;;;;;4388398;32;418325;-81
2023/02/25 01:06:11;;;;;;;50.73;25.60;;;;;;;;;;4389672;32;318729;-83
2023/02/25 01:08:38;;;;;;;49.20;25.97;;;;;;;;;;4398839;32;318479;-84
2023/02/25 01:11:13;;;;;;;56.53;30.00;;;;;;;;;;4400311;32;318932;-86
2023/02/25 01:13:42;;;;;;;53.87;30.20;;;;;;;;;;4386996;32;418032;-85
2023/02/25 01:16:14;;;;;;;59.33;32.70;;;;;;;;;;4389915;32;318866;-88
2023/02/25 01:18:43;;;;;;;57.43;32.27;;;;;;;;;;4399372;32;318649;-82
2023/02/25 01:21:16;;;;;;;50.30;27.53;;;;;;;;;;4391047;32;318696;-82
2023/02/25 01:23:44;;;;;;;50.70;27.50;;;;;;;;;;4404671;32;317452;-85
2023/02/25 01:26:12;;;;;;;44.33;23.20;;;;;;;;;;4393181;32;318746;-87
2023/02/25 01:28:39;;;;;;;50.40;24.33;;;;;;;;;;4403543;32;318788;-85
2023/02/25 01:31:15;;;;;;;44.10;24.43;;;;;;;;;;4403681;32;318730;-86
2023/02/25 01:33:43;;;;;;;45.70;26.00;;;;;;;;;;4389579;32;417920;-81
2023/02/25 01:36:11;;;;;;;45.43;22.70;;;;;;;;;;4393252;32;318850;-81
2023/02/25 01:38:38;;;;;;;45.00;23.13;;;;;;;;;;4402830;32;317730;-79
2023/02/25 01:41:05;;;;;;;43.40;23.00;;;;;;;;;;4403469;32;317452;-81
2023/02/25 01:43:33;;;;;;;39.13;19.53;;;;;;;;;;4393291;32;318708;-81
2023/02/25 01:46:01;;;;;;;36.40;20.27;;;;;;;;;;4403845;32;318921;-81
2023/02/25 01:48:32;;;;;;;36.60;20.93;;;;;;;;;;4391439;32;318840;-86
2023/02/25 01:51:03;;;;;;;36.27;22.07;;;;;;;;;;4404122;32;318813;-82
2023/02/25 01:53:35;;;;;;;43.30;21.57;;;;;;;;;;4393342;32;318654;-82
2023/02/25 01:56:06;;;;;;;49.47;23.63;;;;;;;;;;4402412;32;318879;-81
2023/02/25 01:58:34;;;;;;;42.07;21.93;;;;;;;;;;4391649;32;318652;-86
2023/02/25 02:01:02;;;;;;;51.43;22.07;;;;;;;;;;4403397;32;317580;-81
2023/02/25 02:03:29;;;;;;;39.27;21.50;;;;;;;;;;4391714;32;318961;-84
2023/02/25 02:06:05;;;;;;;38.63;21.73;;;;;;;;;;4402316;32;318771;-81
2023/02/25 02:08:34;;;;;;;33.97;20.57;;;;;;;;;;4391267;32;318765;-85
2023/02/25 02:11:02;;;;;;;43.97;20.33;;;;;;;;;;4402529;32;318812;-89
2023/02/25 02:13:30;;;;;;;40.97;22.13;;;;;;;;;;4390991;32;335822;-84
2023/02/25 02:16:09;;;;;;;36.67;23.17;;;;;;;;;;4401524;32;318711;-90
2023/02/25 02:18:41;;;;;;;38.17;21.60;;;;;;;;;;4390241;32;418186;-82
2023/02/25 02:21:24;;;;;;;40.47;20.50;;;;;;;;;;4394952;32;318664;-81
2023/02/25 02:24:20;;;;;;;41.97;18.43;;;;;;;;;;4402392;32;318762;-82
2023/02/25 02:26:56;;;;;;;41.87;17.27;;;;;;;;;;4388280;32;419266;-83
2023/02/25 02:29:55;;;;;;;31.60;17.73;;;;;;;;;;4392210;32;318667;-84
2023/02/25 02:32:35;;;;;;;40.83;19.20;;;;;;;;;;4367631;32;318667;-84
2023/02/25 02:35:11;;;;;;;46.20;21.40;;;;;;;;;;4401138;32;318698;-82
2023/02/25 02:37:45;;;;;;;34.17;19.73;;;;;;;;;;4388839;32;419110;-86
2023/02/25 02:40:25;;;;;;;36.03;19.23;;;;;;;;;;4391596;32;318759;-86
2023/02/25 02:43:12;;;;;;;39.33;21.17;;;;;;;;;;4401798;32;318923;-85
2023/02/25 02:45:46;;;;;;;46.47;24.20;;;;;;;;;;4387810;32;419088;-84
2023/02/25 02:48:20;;;;;;;62.07;35.13;;;;;;;;;;4389201;32;323003;-83
2023/02/25 02:50:53;;;;;;;57.97;35.53;;;;;;;;;;4401831;32;318743;-82
2023/02/25 02:53:24;;;;;;;57.40;36.53;;;;;;;;;;4390035;32;318729;-86
2023/02/25 02:55:54;;;;;;;54.07;31.73;;;;;;;;;;4400962;32;318806;-85
2023/02/25 02:58:27;;;;;;;49.43;29.10;;;;;;;;;;4391810;32;318589;-86
2023/02/25 03:00:59;;;;;;;41.77;28.80;;;;;;;;;;4402360;32;318802;-83
2023/02/25 03:03:36;;;;;;;49.97;29.67;;;;;;;;;;4392835;32;318534;-83
2023/02/25 03:06:07;;;;;;;41.93;25.37;;;;;;;;;;4400632;32;319041;-83
2023/02/25 03:08:40;;;;;;;48.10;28.73;;;;;;;;;;4387146;32;418283;-83
2023/02/25 03:11:07;;;;;;;42.37;29.47;;;;;;;;;;4400529;32;318858;-88
2023/02/25 03:13:35;;;;;;;45.93;29.43;;;;;;;;;;4390438;32;388872;-83
2023/02/25 03:16:07;;;;;;;39.13;28.47;;;;;;;;;;4399068;32;317558;-88
2023/02/25 03:18:40;;;;;;;49.57;27.53;;;;;;;;;;4388324;32;418229;-84
2023/02/25 03:21:14;;;;;;;33.23;19.47;;;;;;;;;;4402102;32;318885;-86
2023/02/25 03:23:44;;;;;;;44.27;24.87;;;;;;;;;;4389496;32;418289;-89
2023/02/25 03:26:20;;;;;;;43.30;25.80;;;;;;;;;;4388335;32;319072;-82
2023/02/25 03:28:48;;;;;;;51.07;27.57;;;;;;;;;;4402634;32;318706;-89
2023/02/25 03:31:20;;;;;;;42.63;25.93;;;;;;;;;;4389479;32;319315;-83
2023/02/25 03:33:53;;;;;;;42.40;26.17;;;;;;;;;;4400803;32;318927;-83
2023/02/25 03:36:27;;;;;;;40.83;24.30;;;;;;;;;;4391842;32;319078;-88
2023/02/25 03:38:57;;;;;;;53.23;25.60;;;;;;;;;;4401247;32;318984;-83
2023/02/25 03:41:30;;;;;;;44.70;23.13;;;;;;;;;;4389044;32;318790;-82
2023/02/25 03:43:59;;;;;;;51.23;25.60;;;;;;;;;;4400306;32;318689;-81
2023/02/25 03:46:28;;;;;;;46.13;23.90;;;;;;;;;;4391183;32;318797;-82
2023/02/25 03:48:58;;;;;;;45.47;25.63;;;;;;;;;;4402273;32;318693;-82
2023/02/25 03:51:32;;;;;;;66.97;37.30;;;;;;;;;;4390738;32;318769;-84
2023/02/25 03:53:59;;;;;;;55.53;31.53;;;;;;;;;;4401389;32;359410;-88
2023/02/25 03:56:26;;;;;;;88.20;40.97;;;;;;;;;;4391980;32;318763;-83
2023/02/25 03:58:54;;;;;;;69.93;40.03;;;;;;;;;;4401880;32;318667;-85
2023/02/25 04:01:26;;;;;;;80.53;46.40;;;;;;;;;;4388511;32;356380;-82
2023/02/25 04:03:54;;;;;;;74.00;40.53;;;;;;;;;;4400734;32;319143;-84
2023/02/25 04:06:24;;;;;;;87.43;46.37;;;;;;;;;;4389954;32;318924;-82
2023/02/25 04:08:51;;;;;;;87.27;50.00;;;;;;;;;;4400752;32;325671;-82
2023/02/25 04:11:19;;;;;;;94.30;50.27;;;;;;;;;;4393206;32;318999;-83
2023/02/25 04:13:46;;;;;;;102.23;52.50;;;;;;;;;;4406536;32;318783;-80
2023/02/25 04:16:14;;;;;;;99.83;52.07;;;;;;;;;;4398895;32;319680;-92
2023/02/25 04:18:42;;;;;;;95.63;54.60;;;;;;;;;;4406085;32;318574;-92
2023/02/25 04:21:10;;;;;;;74.63;43.57;;;;;;;;;;4393809;32;378924;-89
2023/02/25 04:23:39;;;;;;;89.77;48.83;;;;;;;;;;4405626;32;319007;-82
2023/02/25 04:26:07;;;;;;;86.07;50.03;;;;;;;;;;4403064;32;318615;-87
2023/02/25 04:28:34;;;;;;;75.73;37.90;;;;;;;;;;4386244;32;418345;-86
2023/02/25 04:31:02;;;;;;;77.00;42.93;;;;;;;;;;4400659;32;318886;-86
2023/02/25 04:33:29;;;;;;;68.93;35.27;;;;;;;;;;4390379;32;318987;-83
2023/02/25 04:35:57;;;;;;;51.73;30.57;;;;;;;;;;4401506;32;318777;-85
2023/02/25 04:38:25;;;;;;;57.00;31.07;;;;;;;;;;4388818;32;318947;-83
2023/02/25 04:40:54;;;;;;;60.23;29.07;;;;;;;;;;4401565;32;318693;-88
2023/02/25 04:43:21;;;;;;;59.53;28.23;;;;;;;;;;4390844;32;318865;-85
2023/02/25 04:45:49;;;;;;;51.13;27.23;;;;;;;;;;4400693;32;318596;-84
2023/02/25 04:48:23;;;;;;;56.90;27.37;;;;;;;;;;4389146;32;344296;-84
2023/02/25 04:50:50;;;;;;;51.93;28.37;;;;;;;;;;4401533;32;318628;-88
2023/02/25 04:53:18;;;;;;;51.57;28.93;;;;;;;;;;4389137;32;318941;-85
2023/02/25 04:55:45;;;;;;;53.37;32.40;;;;;;;;;;4400862;32;318982;-81
2023/02/25 04:58:14;;;;;;;67.57;36.10;;;;;;;;;;4388973;32;318714;-81
2023/02/25 05:00:48;;;;;;;63.20;39.37;;;;;;;;;;4399882;32;319134;-83
2023/02/25 05:03:15;;;;;;;72.60;43.07;;;;;;;;;;4391057;32;318738;-83
2023/02/25 05:05:42;;;;;;;95.80;52.27;;;;;;;;;;4400545;32;318939;-84
2023/02/25 05:08:10;;;;;;;78.23;46.07;;;;;;;;;;4390341;32;318862;-82
2023/02/25 05:10:38;;;;;;;71.43;43.20;;;;;;;;;;4400069;32;318874;-82
2023/02/25 05:13:05;;;;;;;109.80;57.23;;;;;;;;;;4400071;32;318795;-82
2023/02/25 05:15:34;;;;;;;153.20;70.67;;;;;;;;;;4388017;32;319963;-86
2023/02/25 05:18:02;;;;;;;132.87;65.00;;;;;;;;;;4399509;32;320029;-82
2023/02/25 05:20:29;;;;;;;156.93;73.67;;;;;;;;;;4389193;32;322743;-81
2023/02/25 05:22:57;;;;;;;143.77;71.60;;;;;;;;;;4400120;32;319921;-81
2023/02/25 05:25:25;;;;;;;138.10;69.93;;;;;;;;;;4388852;32;318743;-83
2023/02/25 05:27:52;;;;;;;131.83;70.37;;;;;;;;;;4400692;32;318957;-84
2023/02/25 05:30:20;;;;;;;124.30;65.17;;;;;;;;;;4390120;32;318881;-82
2023/02/25 05:32:49;;;;;;;124.97;64.10;;;;;;;;;;4400305;32;318879;-81
2023/02/25 05:35:17;;;;;;;115.13;62.57;;;;;;;;;;4390962;32;318644;-82
2023/02/25 05:37:44;;;;;;;121.97;66.47;;;;;;;;;;4400552;32;318688;-85
2023/02/25 05:40:13;;;;;;;132.23;68.53;;;;;;;;;;4389005;32;318790;-85
2023/02/25 05:42:40;;;;;;;111.77;61.57;;;;;;;;;;4400666;32;318791;-92
2023/02/25 05:45:10;;;;;;;98.00;56.07;;;;;;;;;;4401244;32;318877;-85
2023/02/25 05:47:37;;;;;;;131.23;64.67;;;;;;;;;;4388040;32;417232;-83
2023/02/25 05:50:07;;;;;;;105.63;58.67;;;;;;;;;;4399327;32;319039;-83
2023/02/25 05:52:34;;;;;;;113.10;63.63;;;;;;;;;;4386810;32;421276;-84
2023/02/25 05:55:02;;;;;;;114.30;62.73;;;;;;;;;;4401089;32;318861;-84
2023/02/25 05:57:30;;;;;;;117.77;59.83;;;;;;;;;;4390445;32;319012;-85
2023/02/25 05:59:57;;;;;;;122.13;75.97;;;;;;;;;;4400939;32;318394;-85
2023/02/25 06:02:25;;;;;;;100.47;66.53;;;;;;;;;;4387818;32;318793;-81
2023/02/25 06:04:53;;;;;;;112.50;66.93;;;;;;;;;;4386714;32;318759;-81
2023/02/25 06:07:22;;;;;;;99.97;61.40;;;;;;;;;;4390820;32;319015;-82
2023/02/25 06:09:50;;;;;;;81.83;50.40;;;;;;;;;;4402798;32;317631;-86
2023/02/25 06:12:17;;;;;;;92.53;52.70;;;;;;;;;;4392184;32;317843;-83
2023/02/25 06:14:45;;;;;;;121.20;64.33;;;;;;;;;;4402833;32;317915;-82
2023/02/25 06:17:12;;;;;;;111.13;60.63;;;;;;;;;;4391749;32;344591;-82
2023/02/25 06:19:40;;;;;;;83.00;46.63;;;;;;;;;;4403219;32;318811;-86
2023/02/25 06:22:07;;;;;;;85.17;50.40;;;;;;;;;;4403755;32;318096;-81
2023/02/25 06:24:36;;;;;;;102.03;54.67;;;;;;;;;;4391044;32;388263;-84
2023/02/25 06:27:04;;;;;;;92.20;52.47;;;;;;;;;;4402976;32;318887;-83
2023/02/25 06:29:31;;;;;;;89.70;50.17;;;;;;;;;;4391596;32;324701;-80
2023/02/25 06:32:00;;;;;;;92.60;51.43;;;;;;;;;;4403481;32;318087;-80
2023/02/25 06:34:31;;;;;;;67.93;44.53;;;;;;;;;;4393290;32;317650;-80
2023/02/25 06:36:59;;;;;;;83.07;48.63;;;;;;;;;;4402778;32;317985;-85
2023/02/25 06:39:27;;;;;;;90.93;52.33;;;;;;;;;;4390549;32;318177;-80
2023/02/25 06:41:55;;;;;;;93.20;54.17;;;;;;;;;;4402818;32;317819;-80
2023/02/25 06:44:23;;;;;;;101.33;58.93;;;;;;;;;;4392725;32;317854;-80
2023/02/25 06:46:51;;;;;;;90.90;58.17;;;;;;;;;;4402160;32;318933;-80
2023/02/25 06:49:18;;;;;;;101.67;59.70;;;;;;;;;;4392336;32;318046;-79
2023/02/25 06:51:48;;;;;;;102.83;61.27;;;;;;;;;;4401105;32;318746;-80
2023/02/25 06:54:15;;;;;;;128.77;68.77;;;;;;;;;;4392652;32;318786;-86
2023/02/25 06:56:43;;;;;;;113.57;68.17;;;;;;;;;;4401056;32;318780;-81
2023/02/25 06:59:11;;;;;;;116.03;74.40;;;;;;;;;;4391692;32;318669;-80
2023/02/25 07:01:39;;;;;;;118.67;75.30;;;;;;;;;;4402357;32;319103;-83
2023/02/25 07:04:07;;;;;;;111.77;71.00;;;;;;;;;;4400485;32;318709;-82
2023/02/25 07:06:34;;;;;;;125.87;72.00;;;;;;;;;;4391361;32;319830;-80
2023/02/25 07:09:01;;;;;;;107.67;69.23;;;;;;;;;;4401968;32;340119;-79
2023/02/25 07:11:33;;;;;;;105.53;63.80;;;;;;;;;;4390175;32;319855;-80
2023/02/25 07:14:01;;;;;;;98.83;61.60;;;;;;;;;;4401818;32;319505;-82
2023/02/25 07:16:30;;;;;;;99.10;59.40;;;;;;;;;;4389953;32;359441;-80
2023/02/25 07:19:00;;;;;;;97.90;64.53;;;;;;;;;;4402534;32;318929;-81
2023/02/25 07:21:29;;;;;;;110.17;66.83;;;;;;;;;;4389754;32;318820;-81
2023/02/25 07:23:57;;;;;;;106.40;67.63;;;;;;;;;;4402182;32;338501;-80
2023/02/25 07:26:27;;;;;;;102.93;65.97;;;;;;;;;;4391692;32;319913;-81
2023/02/25 07:28:56;;;;;;;109.50;71.17;;;;;;;;;;4401050;32;319920;-80
2023/02/25 07:31:23;;;;;;;127.40;70.97;;;;;;;;;;4391465;32;320060;-84
2023/02/25 07:33:54;;;;;;;133.87;71.57;;;;;;;;;;4400886;32;319763;-80
2023/02/25 07:36:21;;;;;;;107.97;66.53;;;;;;;;;;4391295;32;320153;-78
2023/02/25 07:38:49;;;;;;;255.60;98.33;;;;;;;;;;4401398;32;319767;-82
2023/02/25 07:41:18;;;;;;;177.33;86.87;;;;;;;;;;4391568;32;341551;-79
2023/02/25 07:43:46;;;;;;;143.40;79.60;;;;;;;;;;4401267;32;319814;-80
2023/02/25 07:46:14;;;;;;;127.27;80.33;;;;;;;;;;4389673;32;359822;-82
2023/02/25 07:48:42;;;;;;;146.13;83.77;;;;;;;;;;4401332;32;319979;-80
2023/02/25 07:51:14;;;;;;;140.43;92.70;;;;;;;;;;4388184;32;331682;-82
2023/02/25 07:53:42;;;;;;;155.17;99.33;;;;;;;;;;4401426;32;319744;-86
2023/02/25 07:56:10;;;;;;;152.13;97.37;;;;;;;;;;4389953;32;320076;-88
2023/02/25 07:58:38;;;;;;;150.00;95.90;;;;;;;;;;4401921;32;320063;-82
2023/02/25 08:01:08;;;;;;;142.83;91.33;;;;;;;;;;4402559;32;319693;-85
2023/02/25 08:03:36;;;;;;;133.10;88.63;;;;;;;;;;4390061;32;419435;-81
2023/02/25 08:06:06;;;;;;;136.57;87.87;;;;;;;;;;4403489;32;318675;-80
2023/02/25 08:08:36;;;;;;;135.57;88.27;;;;;;;;;;4387947;32;419479;-83
2023/02/25 08:11:06;;;;;;;141.70;87.57;;;;;;;;;;4400835;32;319829;-84
2023/02/25 08:13:34;;;;;;;153.57;96.63;;;;;;;;;;4390584;32;319935;-81
2023/02/25 08:16:04;;;;;;;132.83;88.30;;;;;;;;;;4401833;32;319773;-81
2023/02/25 08:18:32;;;;;;;122.20;75.10;;;;;;;;;;4389068;32;328796;-81
2023/02/25 08:20:59;;;;;;;118.40;65.70;;;;;;;;;;4401523;32;319904;-83
2023/02/25 08:23:27;;;;;;;98.10;60.10;;;;;;;;;;4390249;32;319915;-83
2023/02/25 08:25:57;;;;;;;79.33;50.40;;;;;;;;;;4401765;32;317656;-81
2023/02/25 08:28:27;;;;;;;87.53;52.90;;;;;;;;;;4390026;32;318950;-84
2023/02/25 08:30:54;;;;;;;80.97;45.70;;;;;;;;;;4401480;32;332001;-81
2023/02/25 08:33:22;;;;;;;56.13;38.00;;;;;;;;;;4392962;32;318807;-80
2023/02/25 08:35:50;;;;;;;55.63;35.73;;;;;;;;;;4403985;32;318746;-79
2023/02/25 08:38:18;;;;;;;55.60;31.83;;;;;;;;;;4393999;32;318965;-79
2023/02/25 08:40:46;;;;;;;48.27;31.87;;;;;;;;;;4406231;32;318458;-85
2023/02/25 08:43:15;;;;;;;51.30;29.10;;;;;;;;;;4397709;32;317700;-82
2023/02/25 08:45:43;;;;;;;40.17;30.60;;;;;;;;;;4409955;32;324310;-81
2023/02/25 08:48:10;;;;;;;55.33;31.37;;;;;;;;;;4393755;32;318383;-87
2023/02/25 08:50:37;;;;;;;51.87;33.30;;;;;;;;;;4401333;32;318697;-83
2023/02/25 08:53:05;;;;;;;50.27;32.53;;;;;;;;;;4401738;32;319070;-82
2023/02/25 08:55:35;;;;;;;42.40;31.83;;;;;;;;;;4389580;32;318821;-84
2023/02/25 08:58:03;;;;;;;42.43;28.37;;;;;;;;;;4400148;32;318946;-85
2023/02/25 09:00:32;;;;;;;36.40;25.67;;;;;;;;;;4390888;32;318964;-79
2023/02/25 09:02:59;;;;;;;38.70;24.23;;;;;;;;;;4400451;32;319276;-81
2023/02/25 09:05:27;;;;;;;44.80;28.57;;;;;;;;;;4388677;32;318725;-83
2023/02/25 09:07:54;;;;;;;48.27;28.67;;;;;;;;;;4400489;32;318804;-82
2023/02/25 09:10:22;;;;;;;46.47;27.73;;;;;;;;;;4388680;32;354601;-83
2023/02/25 09:12:50;;;;;;;38.13;25.17;;;;;;;;;;4399987;32;338821;-82
2023/02/25 09:15:17;;;;;;;52.70;29.43;;;;;;;;;;4390337;32;319146;-82
2023/02/25 09:17:46;;;;;;;48.83;28.57;;;;;;;;;;4401198;32;320415;-82
2023/02/25 09:20:16;;;;;;;47.37;30.37;;;;;;;;;;4387984;32;369919;-83
2023/02/25 09:22:44;;;;;;;52.77;28.87;;;;;;;;;;4398974;32;319113;-82
2023/02/25 09:25:12;;;;;;;53.40;28.83;;;;;;;;;;4387226;32;318995;-80
2023/02/25 09:27:40;;;;;;;42.93;26.60;;;;;;;;;;4390620;32;348662;-80
2023/02/25 09:30:09;;;;;;;50.27;28.03;;;;;;;;;;4398340;32;318999;-82
2023/02/25 09:32:37;;;;;;;57.73;29.47;;;;;;;;;;4372028;32;418389;-82
2023/02/25 09:35:07;;;;;;;55.87;28.07;;;;;;;;;;4399369;32;319030;-81
2023/02/25 09:37:34;;;;;;;44.77;28.13;;;;;;;;;;4387970;32;419169;-80
2023/02/25 09:40:04;;;;;;;37.93;22.70;;;;;;;;;;4399967;32;318753;-84
2023/02/25 09:42:44;;;;;;;40.53;23.47;;;;;;;;;;4390942;32;318887;-86
2023/02/25 09:45:17;;;;;;;36.77;20.03;;;;;;;;;;4391151;32;328243;-85
2023/02/25 09:47:50;;;;;;;39.07;21.37;;;;;;;;;;4402660;32;318955;-81
2023/02/25 09:50:23;;;;;;;39.20;21.00;;;;;;;;;;4392067;32;318998;-83
2023/02/25 09:52:57;;;;;;;35.90;21.37;;;;;;;;;;4403693;32;318969;-80
2023/02/25 09:55:32;;;;;;;33.37;18.53;;;;;;;;;;4392809;32;318812;-81
2023/02/25 09:58:07;;;;;;;42.33;20.67;;;;;;;;;;4403582;32;318905;-81
2023/02/25 10:00:40;;;;;;;53.67;25.30;;;;;;;;;;4388657;32;418225;-83
2023/02/25 10:03:17;;;;;;;37.87;20.53;;;;;;;;;;4403213;32;318884;-82
2023/02/25 10:05:53;;;;;;;42.37;19.87;;;;;;;;;;4390054;32;418131;-81
2023/02/25 10:08:28;;;;;;;33.97;19.00;;;;;;;;;;4393105;32;318870;-80
2023/02/25 10:11:11;;;;;;;37.07;21.50;;;;;;;;;;4404434;32;318976;-81
2023/02/25 10:13:48;;;;;;;50.03;29.27;;;;;;;;;;4378974;32;419347;-81
2023/02/25 10:16:39;;;;;;;37.80;20.80;;;;;;;;;;4392898;32;318652;-83
2023/02/25 10:19:17;;;;;;;35.07;19.37;;;;;;;;;;4403677;32;318748;-82
2023/02/25 10:22:00;;;;;;;39.07;19.67;;;;;;;;;;4388413;32;419406;-81
2023/02/25 10:24:34;;;;;;;42.23;19.93;;;;;;;;;;4389446;32;318810;-83
2023/02/25 10:27:12;;;;;;;28.13;17.20;;;;;;;;;;4400501;32;356082;-81
2023/02/25 10:29:45;;;;;;;27.20;17.87;;;;;;;;;;4390288;32;419073;-82
2023/02/25 10:32:19;;;;;;;35.30;18.03;;;;;;;;;;4392200;32;318880;-84
2023/02/25 10:34:47;;;;;;;37.77;17.43;;;;;;;;;;4402188;32;318929;-82
2023/02/25 10:37:22;;;;;;;36.97;19.00;;;;;;;;;;4389880;32;319263;-81
2023/02/25 10:39:54;;;;;;;43.63;19.13;;;;;;;;;;4403030;32;318935;-81
2023/02/25 10:42:22;;;;;;;36.77;19.67;;;;;;;;;;4383551;32;319224;-82
2023/02/25 10:44:51;;;;;;;38.07;19.67;;;;;;;;;;4403217;32;318901;-81
2023/02/25 10:47:26;;;;;;;35.80;20.20;;;;;;;;;;4391768;32;318930;-81
2023/02/25 10:50:16;;;;;;;36.47;20.03;;;;;;;;;;4402912;32;319027;-79
2023/02/25 10:53:00;;;;;;;46.47;20.70;;;;;;;;;;4389954;32;389909;-82
2023/02/25 10:55:54;;;;;;;47.23;22.53;;;;;;;;;;4392098;32;318794;-83
2023/02/25 10:58:30;;;;;;;38.50;20.87;;;;;;;;;;4390755;32;318940;-82
2023/02/25 11:01:01;;;;;;;37.23;20.03;;;;;;;;;;4403351;32;318793;-80
2023/02/25 11:03:31;;;;;;;43.13;20.30;;;;;;;;;;4390894;32;319101;-82
2023/02/25 11:06:12;;;;;;;41.47;22.90;;;;;;;;;;4401460;32;333859;-83
2023/02/25 11:08:43;;;;;;;42.37;23.53;;;;;;;;;;4388907;32;419123;-82
2023/02/25 11:11:17;;;;;;;54.80;27.07;;;;;;;;;;4392171;32;319021;-83
2023/02/25 11:13:44;;;;;;;48.67;23.50;;;;;;;;;;4401094;32;318928;-84
2023/02/25 11:16:14;;;;;;;46.87;27.97;;;;;;;;;;4391151;32;318949;-82
2023/02/25 11:18:42;;;;;;;43.77;22.97;;;;;;;;;;4400290;32;357145;-83
2023/02/25 11:21:14;;;;;;;47.33;19.73;;;;;;;;;;4391525;32;318968;-83
2023/02/25 11:23:48;;;;;;;41.07;19.20;;;;;;;;;;4401468;32;319290;-82
2023/02/25 11:26:18;;;;;;;55.13;24.40;;;;;;;;;;4392051;32;318877;-81
2023/02/25 11:28:48;;;;;;;53.07;26.87;;;;;;;;;;4401427;32;318804;-82
2023/02/25 11:31:19;;;;;;;59.90;26.37;;;;;;;;;;4390898;32;318731;-82
2023/02/25 11:33:51;;;;;;;64.00;29.97;;;;;;;;;;4402550;32;318689;-82
2023/02/25 11:36:23;;;;;;;47.83;25.83;;;;;;;;;;4390153;32;318805;-86
2023/02/25 11:39:06;;;;;;;54.13;30.20;;;;;;;;;;4401879;32;318572;-84
2023/02/25 11:41:33;;;;;;;54.50;27.53;;;;;;;;;;4391845;32;318844;-82
2023/02/25 11:44:19;;;;;;;55.80;28.77;;;;;;;;;;4400534;32;330691;-85
2023/02/25 11:46:55;;;;;;;74.90;29.90;;;;;;;;;;4388236;32;419078;-81
2023/02/25 11:49:33;;;;;;;68.80;28.03;;;;;;;;;;4394386;32;318789;-79
2023/02/25 11:52:08;;;;;;;71.77;33.93;;;;;;;;;;4408967;32;319096;-82
2023/02/25 11:54:45;;;;;;;71.03;37.20;;;;;;;;;;4399959;32;422043;-83
2023/02/25 11:57:19;;;;;;;79.93;32.73;;;;;;;;;;4402217;32;318086;-84
2023/02/25 11:59:57;;;;;;;64.13;32.57;;;;;;;;;;4407316;32;318645;-81
2023/02/25 12:02:36;;;;;;;73.13;33.87;;;;;;;;;;4388898;32;355506;-83
2023/02/25 12:05:25;;;;;;;69.87;32.07;;;;;;;;;;4401561;32;318780;-82
2023/02/25 12:08:23;;;;;;;61.27;33.37;;;;;;;;;;4387482;32;419251;-84
2023/02/25 12:11:34;;;;;;;76.63;39.73;;;;;;;;;;4387774;32;419406;-83
2023/02/25 12:14:52;;;;;;;71.90;40.53;;;;;;;;;;4388510;32;422222;-82
2023/02/25 12:17:37;;;;;;;76.83;45.30;;;;;;;;;;4388005;32;421775;-83
2023/02/25 12:20:37;;;;;;;110.77;50.47;;;;;;;;;;4401082;32;318855;-79
2023/02/25 12:23:33;;;;;;;63.47;32.90;;;;;;;;;;4398771;32;420337;-82
2023/02/25 12:26:10;;;;;;;41.67;23.53;;;;;;;;;;4387667;32;389666;-80
2023/02/25 12:28:55;;;;;;;72.50;35.97;;;;;;;;;;4387330;32;419321;-81
2023/02/25 12:32:09;;;;;;;68.93;36.47;;;;;;;;;;4390356;32;318659;-83
2023/02/25 12:34:53;;;;;;;56.23;29.30;;;;;;;;;;4361183;32;419506;-82
2023/02/25 12:37:36;;;;;;;55.83;29.93;;;;;;;;;;4388736;32;318508;-82
2023/02/25 12:40:27;;;;;;;62.87;28.03;;;;;;;;;;4401207;32;318894;-81
2023/02/25 12:43:04;;;;;;;59.70;28.00;;;;;;;;;;4387034;32;419383;-80
2023/02/25 12:46:07;;;;;;;39.07;18.90;;;;;;;;;;4388589;32;319020;-82
2023/02/25 12:49:14;;;;;;;60.30;21.80;;;;;;;;;;4387149;32;418971;-80
2023/02/25 12:52:05;;;;;;;61.43;29.30;;;;;;;;;;4377045;32;419931;-82
2023/02/25 12:55:09;;;;;;;46.73;15.80;;;;;;;;;;4388309;32;318774;-81
2023/02/25 12:57:48;;;;;;;41.47;11.80;;;;;;;;;;4388483;32;419171;-86
2023/02/25 13:00:57;;;;;;;33.53;13.57;;;;;;;;;;4390625;32;319090;-81
2023/02/25 13:03:50;;;;;;;41.80;15.47;;;;;;;;;;4360624;32;318940;-82
2023/02/25 13:07:06;;;;;;;40.57;12.93;;;;;;;;;;4389791;32;318703;-84
2023/02/25 13:09:51;;;;;;;50.17;12.63;;;;;;;;;;4319094;32;318823;-81
2023/02/25 13:12:40;;;;;;;40.77;11.77;;;;;;;;;;4390610;32;335532;-82
2023/02/25 13:15:13;;;;;;;34.00;12.13;;;;;;;;;;4399096;32;318897;-82
2023/02/25 13:18:02;;;;;;;41.40;13.07;;;;;;;;;;4388091;32;419226;-83
2023/02/25 13:20:44;;;;;;;29.20;11.30;;;;;;;;;;4390786;32;318799;-86
2023/02/25 13:23:48;;;;;;;35.03;11.93;;;;;;;;;;4387476;32;319022;-84
2023/02/25 13:26:39;;;;;;;35.40;11.80;;;;;;;;;;4390421;32;318886;-85
2023/02/25 13:29:36;;;;;;;33.07;11.70;;;;;;;;;;4397272;32;318617;-85
2023/02/25 13:32:28;;;;;;;33.97;11.37;;;;;;;;;;4375312;32;390038;-84
2023/02/25 13:35:14;;;;;;;39.17;11.73;;;;;;;;;;4383194;32;419331;-83
2023/02/25 13:37:51;;;;;;;37.90;11.30;;;;;;;;;;4386652;32;419323;-87
2023/02/25 13:40:29;;;;;;;37.00;11.80;;;;;;;;;;4388905;32;319064;-83
2023/02/25 13:43:12;;;;;;;30.87;9.77;;;;;;;;;;4401067;32;318840;-82
2023/02/25 13:45:55;;;;;;;33.17;11.77;;;;;;;;;;4387100;32;417848;-85
2023/02/25 13:48:47;;;;;;;33.13;12.10;;;;;;;;;;4389555;32;318905;-83
2023/02/25 13:51:33;;;;;;;44.97;12.40;;;;;;;;;;4390491;32;319001;-83
2023/02/25 13:54:23;;;;;;;25.53;10.03;;;;;;;;;;4400789;32;318863;-82
2023/02/25 13:57:11;;;;;;;36.97;9.27;;;;;;;;;;4388031;32;419165;-87
2023/02/25 14:00:00;;;;;;;34.03;9.40;;;;;;;;;;4387839;32;418231;-85
2023/02/25 14:02:50;;;;;;;32.70;9.93;;;;;;;;;;4390804;32;317875;-82
2023/02/25 14:05:44;;;;;;;44.77;9.43;;;;;;;;;;4389768;32;318042;-81
2023/02/25 14:08:33;;;;;;;28.70;8.00;;;;;;;;;;4388675;32;317627;-84
2023/02/25 14:11:29;;;;;;;39.93;7.67;;;;;;;;;;4398887;32;317930;-80
2023/02/25 14:14:25;;;;;;;42.17;8.47;;;;;;;;;;4387072;32;420858;-81
2023/02/25 14:17:12;;;;;;;35.07;8.83;;;;;;;;;;4387025;32;417927;-82
2023/02/25 14:19:47;;;;;;;28.37;10.27;;;;;;;;;;4386916;32;418496;-82
2023/02/25 14:22:38;;;;;;;35.40;9.87;;;;;;;;;;4389815;32;318875;-83
2023/02/25 14:25:23;;;;;;;52.47;11.60;;;;;;;;;;4400307;32;317909;-80
2023/02/25 14:28:04;;;;;;;26.70;10.77;;;;;;;;;;4389827;32;389545;-80
2023/02/25 14:30:40;;;;;;;27.60;11.40;;;;;;;;;;4392989;32;318884;-79
2023/02/25 14:33:26;;;;;;;31.20;11.10;;;;;;;;;;4402652;32;318956;-79
2023/02/25 14:36:19;;;;;;;27.80;9.85;;;;;;;;;;4390177;32;419530;-83
2023/02/25 14:39:19;;;;;;;34.83;9.18;;;;;;;;;;4389402;32;417888;-81
2023/02/25 14:41:57;;;;;;;27.80;10.73;;;;;;;;;;4387372;32;418399;-81